Big Bear Station Historical Data
Daily Summary for May 18, 2017 Units:  English    Metric   Both
« Previous Day
Next Day »
Daily Weekly Monthly Yearly Custom
  High: Low: Average:
Temperature: 64.6 °F 32.7 °F 48 °F
Dew Point: 30.9 °F 16.7 °F 23.1 °F
Humidity: 82 % 16 % 43 %
Wind Speed: 8.3 mph 0.0 mph 2.8 mph
Wind Gust: -999.0 mph - -
Wind:- - SW
Pressure: 30.10 in 30.00 in -
Precipitation: 0.00 in    
Historical Graphs
 
 
Tabular Data for May 18, 2017
Time Temperature Dew Point Pressure Wind Wind Speed Wind Gust Humidity Rainfall Rate (Hourly)
00:10 36.0 °F 26.8 °F 30.00 in Calm   -999.0 mph 69 % 0 in
00:25 35.6 °F 26.4 °F 30.01 in Calm   -999.0 mph 69 % 0 in
00:41 35.4 °F 25.9 °F 30.00 in Calm   -999.0 mph 68 % 0 in
00:56 35.8 °F 27.0 °F 30.01 in South 2.2 mph -999.0 mph 70 % 0 in
01:11 35.4 °F 27.3 °F 30.01 in Calm   -999.0 mph 72 % 0 in
01:26 36.0 °F 28.2 °F 30.01 in South 2.2 mph -999.0 mph 73 % 0 in
01:41 36.1 °F 28.9 °F 30.02 in South 1.7 mph -999.0 mph 75 % 0 in
01:57 36.5 °F 30.9 °F 30.02 in SSW 2.2 mph -999.0 mph 80 % 0 in
02:12 36.1 °F 30.8 °F 30.02 in South 1.7 mph -999.0 mph 81 % 0 in
02:27 35.8 °F 30.5 °F 30.02 in SSE 1.7 mph -999.0 mph 81 % 0 in
02:42 35.8 °F 30.8 °F 30.02 in SSE 1.7 mph -999.0 mph 82 % 0 in
02:57 35.4 °F 30.2 °F 30.02 in SSE 1.7 mph -999.0 mph 81 % 0 in
03:28 34.7 °F 29.2 °F 30.02 in SSE 1.7 mph -999.0 mph 80 % 0 in
03:44 34.7 °F 28.9 °F 30.02 in South 2.2 mph -999.0 mph 79 % 0 in
03:59 34.2 °F 28.1 °F 30.02 in South 2.2 mph -999.0 mph 78 % 0 in
04:14 34.0 °F 27.2 °F 30.02 in SSE 1.7 mph -999.0 mph 76 % 0 in
04:30 34.0 °F 27.5 °F 30.02 in SSE 1.7 mph -999.0 mph 77 % 0 in
04:45 33.6 °F 27.2 °F 30.02 in SE 2.7 mph -999.0 mph 77 % 0 in
05:00 33.4 °F 27.3 °F 30.02 in SSE 2.7 mph -999.0 mph 78 % 0 in
05:16 32.7 °F 26.6 °F 30.01 in South 3.2 mph -999.0 mph 78 % 0 in
05:31 33.1 °F 26.0 °F 30.02 in South 3.2 mph -999.0 mph 75 % 0 in
05:46 32.9 °F 24.9 °F 30.02 in SSE 2.2 mph -999.0 mph 72 % 0 in
06:01 34.0 °F 23.1 °F 30.02 in South 3.2 mph -999.0 mph 64 % 0 in
06:17 34.2 °F 21.8 °F 30.03 in South 2.2 mph -999.0 mph 60 % 0 in
06:32 34.3 °F 23.0 °F 30.03 in Calm   -999.0 mph 63 % 0 in
06:47 35.4 °F 24.4 °F 30.03 in SSE 1.7 mph -999.0 mph 64 % 0 in
07:02 35.6 °F 24.2 °F 30.04 in Calm   -999.0 mph 63 % 0 in
07:18 36.1 °F 23.9 °F 30.03 in Calm   -999.0 mph 61 % 0 in
07:33 37.4 °F 22.3 °F 30.04 in SE 1.1 mph -999.0 mph 54 % 0 in
07:48 39.7 °F 22.1 °F 30.04 in Calm   -999.0 mph 49 % 0 in
08:03 41.5 °F 21.2 °F 30.04 in NNW 1.1 mph -999.0 mph 44 % 0 in
08:18 42.8 °F 21.3 °F 30.04 in Calm   -999.0 mph 42 % 0 in
08:34 44.1 °F 21.3 °F 30.04 in NNW 3.7 mph -999.0 mph 40 % 0 in
08:49 46.0 °F 21.8 °F 30.04 in NNW 4.2 mph -999.0 mph 38 % 0 in
09:04 47.1 °F 22.1 °F 30.04 in Calm   -999.0 mph 37 % 0 in
09:19 47.8 °F 22.1 °F 30.04 in Calm   -999.0 mph 36 % 0 in
09:35 50.2 °F 23.6 °F 30.03 in NNW 2.7 mph -999.0 mph 35 % 0 in
09:50 51.4 °F 22.5 °F 30.03 in Calm   -999.0 mph 32 % 0 in
10:05 52.3 °F 23.3 °F 30.03 in NW 4.2 mph -999.0 mph 32 % 0 in
10:20 53.6 °F 22.1 °F 30.03 in NW 4.2 mph -999.0 mph 29 % 0 in
10:36 54.7 °F 21.3 °F 30.03 in NNW 4.7 mph -999.0 mph 27 % 0 in
10:51 56.7 °F 24.8 °F 30.03 in NW 5.8 mph -999.0 mph 29 % 0 in
11:06 57.2 °F 24.4 °F 30.03 in North 3.7 mph -999.0 mph 28 % 0 in
11:21 57.9 °F 25.0 °F 30.04 in NW 6.3 mph -999.0 mph 28 % 0 in
11:36 57.7 °F 21.1 °F 30.04 in WNW 4.7 mph -999.0 mph 24 % 0 in
11:52 59.9 °F 24.9 °F 30.04 in NE 4.2 mph -999.0 mph 26 % 0 in
12:07 60.4 °F 26.2 °F 30.04 in NNW 5.8 mph -999.0 mph 27 % 0 in
12:22 60.8 °F 21.7 °F 30.04 in NNE 3.2 mph -999.0 mph 22 % 0 in
12:37 61.9 °F 25.7 °F 30.04 in NW 5.8 mph -999.0 mph 25 % 0 in
12:52 62.2 °F 22.9 °F 30.03 in North 8.3 mph -999.0 mph 22 % 0 in
13:08 63.0 °F 22.4 °F 30.03 in NW 4.2 mph -999.0 mph 21 % 0 in
13:23 62.6 °F 18.5 °F 30.03 in NNW 4.7 mph -999.0 mph 18 % 0 in
13:38 63.7 °F 21.9 °F 30.03 in North 5.8 mph -999.0 mph 20 % 0 in
13:54 63.9 °F 19.5 °F 30.03 in NNW 5.8 mph -999.0 mph 18 % 0 in
14:09 64.6 °F 18.8 °F 30.03 in NW 6.3 mph -999.0 mph 17 % 0 in
14:24 64.4 °F 18.6 °F 30.03 in North 3.2 mph -999.0 mph 17 % 0 in
14:39 63.9 °F 16.8 °F 30.03 in NW 6.3 mph -999.0 mph 16 % 0 in
14:54 63.3 °F 19.0 °F 30.03 in NNE 6.3 mph -999.0 mph 18 % 0 in
15:10 63.3 °F 20.3 °F 30.03 in NNE 5.8 mph -999.0 mph 19 % 0 in
15:25 62.2 °F 22.9 °F 30.03 in NNE 5.8 mph -999.0 mph 22 % 0 in
15:40 62.6 °F 19.7 °F 30.03 in NNW 8.3 mph -999.0 mph 19 % 0 in
15:55 62.1 °F 16.7 °F 30.02 in NNW 2.2 mph -999.0 mph 17 % 0 in
16:11 61.9 °F 21.5 °F 30.02 in WNW 4.7 mph -999.0 mph 21 % 0 in
16:26 62.4 °F 17.0 °F 30.03 in NE 3.7 mph -999.0 mph 17 % 0 in
16:41 63.9 °F 16.8 °F 30.03 in NW 5.3 mph -999.0 mph 16 % 0 in
16:56 64.6 °F 18.8 °F 30.03 in NNW 5.3 mph -999.0 mph 17 % 0 in
17:12 63.7 °F 21.9 °F 30.03 in NW 4.2 mph -999.0 mph 20 % 0 in
17:27 62.4 °F 20.8 °F 30.03 in NE 4.2 mph -999.0 mph 20 % 0 in
17:42 62.8 °F 23.4 °F 30.03 in NNW 4.7 mph -999.0 mph 22 % 0 in
17:58 62.6 °F 22.1 °F 30.03 in North 3.2 mph -999.0 mph 21 % 0 in
18:13 61.2 °F 22.0 °F 30.03 in North 4.7 mph -999.0 mph 22 % 0 in
18:28 60.1 °F 22.2 °F 30.04 in NNE 2.7 mph -999.0 mph 23 % 0 in
18:43 60.3 °F 23.3 °F 30.04 in NW 5.3 mph -999.0 mph 24 % 0 in
18:59 58.3 °F 20.6 °F 30.04 in NE 1.1 mph -999.0 mph 23 % 0 in
19:14 55.0 °F 21.6 °F 30.04 in NW 4.7 mph -999.0 mph 27 % 0 in
19:29 52.7 °F 17.8 °F 30.04 in North 3.7 mph -999.0 mph 25 % 0 in
19:44 51.6 °F 20.4 °F 30.04 in NNE 1.1 mph -999.0 mph 29 % 0 in
20:00 50.5 °F 23.2 °F 30.05 in North 1.7 mph -999.0 mph 34 % 0 in
20:15 48.6 °F 22.2 °F 30.05 in SSE 1.7 mph -999.0 mph 35 % 0 in
20:30 47.1 °F 22.8 °F 30.05 in Calm   -999.0 mph 38 % 0 in
20:45 45.7 °F 21.5 °F 30.05 in SSE 2.2 mph -999.0 mph 38 % 0 in
21:00 44.6 °F 21.2 °F 30.05 in SE 1.1 mph -999.0 mph 39 % 0 in
21:16 43.9 °F 20.5 °F 30.06 in Calm   -999.0 mph 39 % 0 in
21:31 42.4 °F 20.3 °F 30.07 in SSE 1.7 mph -999.0 mph 41 % 0 in
21:46 41.7 °F 19.7 °F 30.08 in Calm   -999.0 mph 41 % 0 in
22:01 41.0 °F 20.7 °F 30.08 in South 2.2 mph -999.0 mph 44 % 0 in
22:16 40.5 °F 20.8 °F 30.08 in SSE 1.7 mph -999.0 mph 45 % 0 in
22:32 39.9 °F 21.8 °F 30.09 in Calm   -999.0 mph 48 % 0 in
22:47 39.2 °F 21.6 °F 30.10 in South 1.7 mph -999.0 mph 49 % 0 in
23:02 39.0 °F 21.9 °F 30.10 in South 2.7 mph -999.0 mph 50 % 0 in
23:18 39.4 °F 21.3 °F 30.10 in South 2.2 mph -999.0 mph 48 % 0 in
23:33 39.0 °F 22.4 °F 30.10 in Calm   -999.0 mph 51 % 0 in
23:48 39.6 °F 24.3 °F 30.10 in South 1.7 mph -999.0 mph 54 % 0 in
Big Bear CA Weather
Compliments of Weather Underground - 1.5 mb